Latest Weather Observations for Yanakie

IDV60801

Issued at 5:02 pm EST Sunday 31 July 2016 (issued every 30 minutes, with the page automatically refreshed every 10 minutes)

About weather observations | Map of weather stations | Latest weather observations for VIC | Other Formats
Station Details ID: 085301 Name: YANAKIE Lat: -38.81 Lon: 146.19 Height: 13.3 m
Data from the previous 72 hours. | See also: Recent months at Yanakie
Date/Time
EST
Temp
°C
App
Temp
°C
Dew
Point
°C
Rel
Hum
%
Delta-T
°C
Wind Press
QNH
hPa
Press
MSL
hPa
Rain since
9am
mm
Dir  Spd
km/h
Gust
km/h
Spd
kts
Gust
kts
31/05:00pm 11.5 9.8 8.2 80 1.6 W 7 7 4 4 1014.3 1014.3 0.0
31/04:30pm 12.7 10.1 7.8 72 2.4 W 11 15 6 8 1014.2 1014.2 0.0
31/04:00pm 13.2 9.6 8.5 73 2.3 W 17 20 9 11 1014.1 1014.1 0.0
31/03:30pm 13.4 8.5 7.0 65 3.1 W 22 26 12 14 1014.2 1014.2 0.0
31/03:00pm 13.8 8.8 8.0 68 2.9 W 24 32 13 17 1014.1 1014.1 0.0
31/02:30pm 13.7 8.7 8.1 69 2.8 W 24 30 13 16 1014.2 1014.2 0.0
31/02:00pm 14.3 9.5 8.9 70 2.7 W 24 32 13 17 1014.2 1014.2 0.0
31/01:30pm 14.0 8.8 8.8 71 2.6 W 26 35 14 19 1014.2 1014.2 0.0
31/01:00pm 13.4 8.1 8.5 72 2.4 W 26 35 14 19 1014.3 1014.3 0.0
31/12:30pm 13.8 8.5 9.8 77 2.1 WNW 28 37 15 20 1014.6 1014.6 0.0
31/12:00pm 13.5 8.6 9.9 79 1.9 WNW 26 35 14 19 1014.9 1014.9 0.0
31/11:30am 12.0 7.3 9.2 83 1.4 W 24 32 13 17 1015.2 1015.2 0.0
31/11:00am 11.8 6.5 9.7 87 1.1 W 28 39 15 21 1015.4 1015.4 0.0
31/10:30am 12.6 7.5 9.2 80 1.7 WNW 26 37 14 20 1015.2 1015.2 0.0
31/10:00am 12.5 6.7 9.3 81 1.6 WNW 30 41 16 22 1014.9 1014.9 0.0
31/09:30am 12.5 6.3 9.3 81 1.6 WNW 32 44 17 24 1014.5 1014.5 0.0
31/09:00am 11.7 6.5 8.7 82 1.5 NW 26 37 14 20 1014.3 1014.3 0.2
31/08:30am 11.2 4.8 8.6 84 1.3 NW 32 44 17 24 1013.7 1013.7 0.2
31/08:00am 10.6 4.5 8.4 86 1.1 NW 30 39 16 21 1013.5 1013.5 0.2
31/07:30am 10.5 4.7 8.1 85 1.2 WNW 28 37 15 20 1013.3 1013.3 0.2
31/07:00am 10.6 4.4 8.0 84 1.3 WNW 30 43 16 23 1012.8 1012.8 0.2
31/06:30am 10.7 4.6 8.3 85 1.2 NW 30 41 16 22 1012.3 1012.3 0.2
31/06:00am 11.2 4.8 8.4 83 1.4 WNW 32 43 17 23 1012.1 1012.1 0.2
31/05:30am 11.1 4.6 8.3 83 1.4 NW 32 43 17 23 1011.8 1011.8 0.2
31/05:00am 11.2 4.6 8.6 84 1.3 NW 33 50 18 27 1011.5 1011.5 0.2
31/04:35am 11.1 4.7 8.7 85 1.2 WNW 32 52 17 28 1011.5 1011.5 0.2
31/04:30am 11.1 4.5 8.7 85 1.2 NW 33 52 18 28 1011.4 1011.4 0.2
31/04:00am 11.1 3.7 8.5 84 1.3 NW 37 52 20 28 1010.9 1010.9 0.2
31/03:30am 11.5 2.9 8.2 80 1.6 NW 43 61 23 33 1010.6 1010.6 0.2
31/03:06am 12.2 3.9 7.7 74 2.2 NW 41 59 22 32 1010.3 1010.3 0.2
31/03:00am 12.4 3.7 7.5 72 2.4 NW 43 61 23 33 1010.5 1010.5 0.2
31/02:30am 12.5 3.6 7.0 69 2.6 NW 43 65 23 35 1010.4 1010.4 0.2
31/02:00am 12.7 4.1 6.7 67 2.9 NW 41 63 22 34 1010.1 1010.1 0.2
31/01:50am 12.7 4.9 6.7 67 2.9 NW 37 56 20 30 1010.3 1010.3 0.2
31/01:30am 13.0 5.2 6.6 65 3.1 NW 37 52 20 28 1010.5 1010.5 0.2
31/01:00am 13.3 5.8 6.4 63 3.3 NW 35 50 19 27 1010.6 1010.6 0.2
31/12:42am 13.3 6.3 6.2 62 3.4 NW 32 56 17 30 1011.0 1011.0 0.2
31/12:30am 13.3 6.3 5.9 61 3.5 NW 32 43 17 23 1011.2 1011.2 0.2
31/12:01am 13.3 6.6 5.7 60 3.6 NW 30 50 16 27 1011.0 1011.0 0.2
31/12:00am 13.2 6.9 5.6 60 3.6 NNW 28 41 15 22 1011.1 1011.1 0.2
 
Date/Time
EST
Temp
°C
App
Temp
°C
Dew
Point
°C
Rel
Hum
%
Delta-T
°C
Wind Press
QNH
hPa
Press
MSL
hPa
Rain since
9am
mm
Dir  Spd
km/h
Gust
km/h
Spd
kts
Gust
kts
30/11:30pm 12.9 7.0 5.8 62 3.3 NNW 26 44 14 24 1011.3 1011.3 0.2
30/11:00pm 12.7 6.5 6.1 64 3.1 NNW 28 43 15 23 1011.8 1011.8 0.2
30/10:30pm 12.4 7.0 6.2 66 2.9 NW 24 33 13 18 1012.2 1012.2 0.2
30/10:00pm 12.6 7.5 6.2 65 3.0 NW 22 32 12 17 1012.6 1012.6 0.0
30/09:30pm 12.4 7.4 6.5 67 2.8 NNW 22 33 12 18 1012.1 1012.1 0.0
30/09:00pm 12.5 8.5 6.5 67 2.9 NNW 17 24 9 13 1012.4 1012.4 0.0
30/08:30pm 11.8 9.8 7.1 73 2.3 N 7 11 4 6 1013.1 1013.1 0.0
30/08:00pm 11.1 9.4 7.6 79 1.7 N 6 6 3 3 1013.1 1013.1 0.0
30/07:30pm 11.3 9.7 8.0 80 1.6 N 6 11 3 6 1013.4 1013.4 0.0
30/07:00pm 11.5 10.1 7.4 76 2.0 N 4 7 2 4 1013.7 1013.7 0.0
30/06:30pm 12.2 10.8 7.3 72 2.4 N 4 6 2 3 1013.7 1013.7 0.0
30/06:00pm 12.4 10.5 7.7 73 2.3 NNW 7 11 4 6 1014.0 1014.0 0.0
30/05:30pm 12.5 10.5 8.8 78 1.8 WNW 9 13 5 7 1014.3 1014.3 0.0
30/05:00pm 12.9 12.9 9.7 81 1.6 CALM 0 4 0 2 1014.4 1014.4 0.0
30/04:30pm 13.7 12.4 9.2 74 2.3 NNW 6 9 3 5 1014.1 1014.1 0.0
30/04:00pm 14.8 12.6 9.2 69 2.9 NNW 11 13 6 7 1014.4 1014.4 0.0
30/03:30pm 14.4 12.3 9.6 73 2.5 NW 11 15 6 8 1015.0 1015.0 0.0
30/03:00pm 14.3 11.3 9.3 72 2.6 NNW 15 20 8 11 1015.0 1015.0 0.0
30/02:30pm 14.4 10.9 8.6 68 2.9 NNW 17 24 9 13 1015.3 1015.3 0.0
30/02:00pm 15.2 11.9 9.6 69 2.9 NNW 17 22 9 12 1016.1 1016.1 0.0
30/01:30pm 14.5 10.6 9.3 71 2.7 NW 20 26 11 14 1016.8 1016.8 0.0
30/01:00pm 14.5 11.1 9.1 70 2.7 NW 17 22 9 12 1017.4 1017.4 0.0
30/12:30pm 14.8 10.7 8.7 67 3.1 NW 20 32 11 17 1017.7 1017.7 0.0
30/12:00pm 15.0 11.9 8.9 67 3.1 NW 15 22 8 12 1018.0 1018.0 0.0
30/11:30am 13.6 10.6 9.3 75 2.2 NW 15 20 8 11 1018.9 1018.9 0.0
30/11:00am 14.0 11.2 10.0 77 2.1 NNW 15 22 8 12 1019.7 1019.7 0.0
30/10:30am 12.7 10.5 9.5 81 1.6 NW 11 17 6 9 1020.1 1020.1 0.0
30/10:00am 11.7 9.5 9.3 85 1.2 NW 11 15 6 8 1020.3 1020.3 0.0
30/09:30am 11.7 8.7 9.3 85 1.2 NNW 15 19 8 10 1020.4 1020.4 0.0
30/09:00am 10.9 9.0 9.2 89 0.8 NNW 9 15 5 8 1020.4 1020.4 1.8
30/08:30am 10.0 7.6 8.8 92 0.6 NNW 11 15 6 8 1020.6 1020.6 1.8
30/08:00am 9.8 8.2 8.7 93 0.5 N 7 9 4 5 1020.7 1020.7 1.8
30/07:30am 9.5 7.1 8.6 94 0.4 NNW 11 13 6 7 1020.9 1020.9 1.8
30/07:00am 9.0 6.5 8.1 94 0.4 NNW 11 13 6 7 1020.9 1020.9 1.8
30/06:30am 8.5 6.8 7.6 94 0.4 NW 6 7 3 4 1020.8 1020.8 1.8
30/06:00am 9.3 7.2 8.4 94 0.4 NW 9 13 5 7 1020.7 1020.7 1.8
30/05:30am 9.2 7.1 8.3 94 0.4 NW 9 13 5 7 1020.6 1020.6 1.8
30/05:00am 9.4 7.0 8.6 95 0.4 NW 11 15 6 8 1020.4 1020.4 1.8
30/04:30am 9.4 7.4 8.6 95 0.4 WNW 9 13 5 7 1020.1 1020.1 1.8
30/04:00am 8.9 6.7 8.0 94 0.4 WNW 9 13 5 7 1020.3 1020.3 1.8
30/03:30am 9.0 6.9 8.1 94 0.4 WNW 9 11 5 6 1020.3 1020.3 1.8
30/03:00am 9.1 7.3 8.0 93 0.5 WNW 7 11 4 6 1020.5 1020.5 1.8
30/02:30am 9.3 7.2 8.2 93 0.5 WNW 9 11 5 6 1020.8 1020.8 1.8
30/02:00am 9.5 7.4 8.4 93 0.5 WNW 9 11 5 6 1020.8 1020.8 1.8
30/01:30am 9.3 6.8 8.2 93 0.5 NW 11 15 6 8 1020.6 1020.6 1.8
30/01:00am 9.1 6.2 8.0 93 0.5 WNW 13 15 7 8 1020.4 1020.4 1.8
30/12:30am 9.4 7.4 8.5 94 0.4 NW 9 11 5 6 1020.6 1020.6 1.8
30/12:00am 9.8 6.7 8.7 93 0.5 W 15 19 8 10 1020.4 1020.4 1.6
 
Date/Time
EST
Temp
°C
App
Temp
°C
Dew
Point
°C
Rel
Hum
%
Delta-T
°C
Wind Press
QNH
hPa
Press
MSL
hPa
Rain since
9am
mm
Dir  Spd
km/h
Gust
km/h
Spd
kts
Gust
kts
29/11:30pm 10.6 7.6 9.4 92 0.6 WNW 15 19 8 10 1020.5 1020.5 1.6
29/11:00pm 10.6 7.6 9.2 91 0.7 WNW 15 20 8 11 1020.4 1020.4 1.4
29/10:30pm 10.8 7.8 9.4 91 0.7 WNW 15 20 8 11 1020.1 1020.1 1.4
29/10:00pm 11.2 7.6 9.8 91 0.7 W 19 24 10 13 1020.0 1020.0 1.4
29/09:30pm 11.0 7.7 9.6 91 0.7 WNW 17 26 9 14 1019.8 1019.8 1.4
29/09:00pm 11.2 8.0 9.8 91 0.7 WNW 17 20 9 11 1019.8 1019.8 1.4
29/08:30pm 11.5 7.4 10.1 91 0.7 W 22 28 12 15 1019.5 1019.5 1.4
29/08:00pm 11.2 5.5 9.8 91 0.7 W 30 39 16 21 1019.4 1019.4 1.4
29/07:30pm 12.1 6.6 9.1 82 1.5 W 28 35 15 19 1018.9 1018.9 0.0
29/07:00pm 11.6 6.6 9.5 87 1.1 W 26 33 14 18 1018.5 1018.5 0.0
29/06:30pm 12.1 5.9 9.5 84 1.3 W 32 41 17 22 1018.0 1018.0 0.0
29/06:00pm 11.6 6.6 9.7 88 1.0 W 26 37 14 20 1017.7 1017.7 0.0
29/05:30pm 11.8 6.5 9.7 87 1.1 WNW 28 35 15 19 1017.5 1017.5 0.0
29/05:00pm 12.3 6.1 10.0 86 1.2 WNW 33 46 18 25 1017.2 1017.2 0.0
29/04:30pm 12.2 6.3 10.3 88 1.0 WNW 32 41 17 22 1017.0 1017.0 0.0
29/04:00pm 12.3 5.8 10.5 89 0.9 WNW 35 46 19 25 1017.0 1017.0 0.0
29/03:30pm 13.2 5.7 9.6 79 1.8 WNW 39 50 21 27 1016.7 1016.7 0.0
29/03:00pm 13.3 5.5 9.9 80 1.7 WNW 41 56 22 30 1016.5 1016.5 0.0
29/02:51pm 13.9 6.2 10.3 79 1.9 W 41 59 22 32 1016.5 1016.5 0.0
29/02:30pm 13.7 5.5 9.7 77 2.1 WNW 43 57 23 31 1016.3 1016.3 0.0
29/02:05pm 13.8 5.5 9.5 75 2.2 WNW 43 61 23 33 1016.1 1016.1 0.0
29/02:00pm 14.4 6.3 10.0 75 2.3 WNW 43 59 23 32 1016.2 1016.2 0.0
29/01:30pm 13.4 5.7 10.0 80 1.8 WNW 41 61 22 33 1016.3 1016.3 0.0
29/01:25pm 12.9 4.7 9.7 81 1.6 WNW 43 61 23 33 1016.4 1016.4 0.0
29/01:00pm 13.7 6.4 10.1 79 1.9 WNW 39 54 21 29 1016.5 1016.5 0.0
29/12:46pm 13.6 6.2 10.0 79 1.9 WNW 39 57 21 31 1016.6 1016.6 0.0
29/12:30pm 12.9 5.6 10.1 83 1.4 WNW 39 52 21 28 1016.8 1016.8 0.0
29/12:00pm 12.0 3.6 9.6 85 1.2 WNW 44 61 24 33 1017.2 1017.2 0.0
29/11:31am 12.5 4.9 9.0 79 1.8 WNW 39 61 21 33 1016.9 1016.9 0.0
29/11:30am 12.4 5.2 9.1 80 1.7 WNW 37 54 20 29 1017.1 1017.1 0.0
29/11:11am 12.7 4.1 9.0 78 1.9 WNW 44 65 24 35 1017.0 1017.0 0.0
29/11:00am 12.5 4.5 9.0 79 1.8 WNW 41 59 22 32 1017.1 1017.1 0.0
29/10:55am 12.4 4.8 9.1 80 1.7 WNW 39 59 21 32 1017.1 1017.1 0.0
29/10:30am 12.3 3.7 9.0 80 1.7 WNW 44 57 24 31 1017.5 1017.5 0.0
29/10:10am 12.2 3.7 8.7 79 1.7 WNW 43 61 23 33 1017.4 1017.4 0.0
29/10:00am 12.2 3.7 8.7 79 1.7 WNW 43 59 23 32 1017.4 1017.4 0.0
29/09:30am 12.4 4.6 8.3 76 2.0 WNW 39 61 21 33 1017.5 1017.5 0.0
29/09:28am 12.5 4.7 8.4 76 2.0 WNW 39 61 21 33 1017.5 1017.5 0.0
29/09:00am 12.2 4.4 8.1 76 2.0 WNW 39 56 21 30 1017.6 1017.6 0.0
29/08:30am 12.1 3.8 7.8 75 2.1 NW 41 56 22 30 1017.5 1017.5 0.0
29/08:00am 11.8 4.2 7.5 75 2.1 NW 37 59 20 32 1017.3 1017.3 0.0
29/07:30am 11.6 3.6 7.3 75 2.1 NW 39 52 21 28 1017.2 1017.2 0.0
29/07:16am 11.3 3.6 7.2 76 2.0 NW 37 56 20 30 1017.3 1017.3 0.0
29/07:00am 11.2 3.1 7.1 76 2.0 NW 39 57 21 31 1017.3 1017.3 0.0
29/06:50am 11.3 4.0 7.2 76 2.0 NW 35 54 19 29 1017.2 1017.2 0.0
29/06:30am 11.3 4.5 7.0 75 2.0 NW 32 46 17 25 1017.3 1017.3 0.0
29/06:10am 11.1 3.8 7.2 77 1.9 NW 35 54 19 29 1017.1 1017.1 0.0
29/06:00am 11.4 2.9 6.9 74 2.1 NW 41 52 22 28 1017.1 1017.1 0.0
29/05:30am 11.3 4.0 7.0 75 2.0 NW 35 50 19 27 1017.2 1017.2 0.0
29/05:00am 11.1 3.8 7.2 77 1.9 NW 35 48 19 26 1017.4 1017.4 0.0
29/04:30am 10.8 3.6 7.5 80 1.6 NW 35 50 19 27 1017.2 1017.2 0.0
29/04:00am 10.7 3.4 7.4 80 1.6 NW 35 48 19 26 1017.3 1017.3 0.0
29/03:30am 10.7 3.8 7.4 80 1.6 NW 33 48 18 26 1017.7 1017.7 0.0
29/03:00am 11.1 3.1 7.4 78 1.8 NW 39 52 21 28 1018.1 1018.1 0.0
29/02:30am 10.9 2.8 7.2 78 1.8 NW 39 54 21 29 1018.2 1018.2 0.0
29/02:00am 11.3 3.2 7.2 76 2.0 WNW 39 57 21 31 1018.2 1018.2 0.0
29/01:53am 11.4 3.7 7.1 75 2.1 WNW 37 56 20 30 1018.2 1018.2 0.0
29/01:30am 11.3 3.2 7.0 75 2.0 WNW 39 50 21 27 1018.2 1018.2 0.0
29/01:07am 11.5 3.0 7.0 74 2.1 WNW 41 61 22 33 1018.3 1018.3 0.0
29/01:00am 11.9 3.7 6.6 70 2.5 WNW 39 54 21 29 1018.3 1018.3 0.0
29/12:30am 11.7 5.2 6.6 71 2.4 NW 30 44 16 24 1018.6 1018.6 0.0
29/12:00am 11.7 4.8 6.4 70 2.5 NW 32 41 17 22 1018.8 1018.8 0.0
 
Date/Time
EST
Temp
°C
App
Temp
°C
Dew
Point
°C
Rel
Hum
%
Delta-T
°C
Wind Press
QNH
hPa
Press
MSL
hPa
Rain since
9am
mm
Dir  Spd
km/h
Gust
km/h
Spd
kts
Gust
kts
28/11:30pm 11.7 4.8 6.6 71 2.4 NW 32 44 17 24 1018.9 1018.9 0.0
28/11:00pm 11.7 6.0 6.8 72 2.3 NW 26 37 14 20 1019.4 1019.4 0.0
28/10:30pm 11.5 6.2 7.0 74 2.1 NW 24 33 13 18 1019.5 1019.5 0.0
28/10:00pm 11.4 5.7 6.7 73 2.2 NW 26 37 14 20 1019.8 1019.8 0.0
28/09:30pm 11.3 6.0 7.0 75 2.0 NW 24 35 13 19 1019.9 1019.9 0.0
28/09:00pm 11.5 5.5 7.2 75 2.1 NW 28 37 15 20 1020.2 1020.2 0.0
28/08:30pm 11.7 7.0 7.6 76 2.0 NW 22 30 12 16 1020.3 1020.3 0.0
28/08:00pm 12.1 7.4 7.8 75 2.1 NW 22 32 12 17 1020.3 1020.3 0.0
28/07:30pm 12.4 6.2 7.9 74 2.2 NW 30 39 16 21 1020.4 1020.4 0.0
28/07:00pm 12.2 6.8 8.1 76 2.0 NW 26 35 14 19 1020.3 1020.3 0.0
28/06:30pm 12.3 5.5 7.6 73 2.3 NW 33 48 18 26 1020.0 1020.0 0.0
28/06:00pm 12.2 5.6 7.7 74 2.2 WNW 32 39 17 21 1020.0 1020.0 0.0
28/05:30pm 12.2 5.4 7.9 75 2.1 WNW 33 48 18 26 1019.6 1019.6 0.0

Other Formats:

Comma delimited format used in spreadsheet applications
http://www.bom.gov.au/fwo/IDV60801/IDV60801.94911.axf

JavaScript Object Notation format (JSON) in row-major order
http://www.bom.gov.au/fwo/IDV60801/IDV60801.94911.json